sensor_id;sensor_type;location;lat;lon;timestamp;temperature;humidity
66035;HTU21D;52805;51.074;5.842;2023-06-05T00:02:22;18.99;118.99
66035;HTU21D;52805;51.074;5.842;2023-06-05T00:04:48;18.93;118.99
66035;HTU21D;52805;51.074;5.842;2023-06-05T00:07:14;18.81;118.99
66035;HTU21D;52805;51.074;5.842;2023-06-05T00:09:40;18.78;118.99
66035;HTU21D;52805;51.074;5.842;2023-06-05T00:12:06;18.76;118.99
66035;HTU21D;52805;51.074;5.842;2023-06-05T00:14:32;18.73;118.99
66035;HTU21D;52805;51.074;5.842;2023-06-05T00:16:58;18.68;118.99
66035;HTU21D;52805;51.074;5.842;2023-06-05T00:19:23;18.70;118.99
66035;HTU21D;52805;51.074;5.842;2023-06-05T00:21:49;18.71;118.99
66035;HTU21D;52805;51.074;5.842;2023-06-05T00:24:16;18.68;118.99
66035;HTU21D;52805;51.074;5.842;2023-06-05T00:26:42;18.56;118.99
66035;HTU21D;52805;51.074;5.842;2023-06-05T00:29:08;18.47;118.99
66035;HTU21D;52805;51.074;5.842;2023-06-05T00:31:34;18.43;118.99
66035;HTU21D;52805;51.074;5.842;2023-06-05T00:33:59;18.34;118.99
66035;HTU21D;52805;51.074;5.842;2023-06-05T00:36:25;18.25;118.99
66035;HTU21D;52805;51.074;5.842;2023-06-05T00:38:51;18.22;118.99
66035;HTU21D;52805;51.074;5.842;2023-06-05T00:41:17;18.26;118.99
66035;HTU21D;52805;51.074;5.842;2023-06-05T00:43:42;18.28;118.99
66035;HTU21D;52805;51.074;5.842;2023-06-05T00:46:09;18.30;118.99
66035;HTU21D;52805;51.074;5.842;2023-06-05T00:48:37;18.25;118.99
66035;HTU21D;52805;51.074;5.842;2023-06-05T00:51:06;18.24;118.99
66035;HTU21D;52805;51.074;5.842;2023-06-05T00:53:34;18.24;118.99
66035;HTU21D;52805;51.074;5.842;2023-06-05T00:56:02;18.21;118.99
66035;HTU21D;52805;51.074;5.842;2023-06-05T00:58:29;18.14;118.99
66035;HTU21D;52805;51.074;5.842;2023-06-05T01:00:57;18.10;118.99
66035;HTU21D;52805;51.074;5.842;2023-06-05T01:03:24;18.09;118.99
66035;HTU21D;52805;51.074;5.842;2023-06-05T01:05:56;18.04;118.99
66035;HTU21D;52805;51.074;5.842;2023-06-05T01:08:33;17.97;118.99
66035;HTU21D;52805;51.074;5.842;2023-06-05T01:14:23;17.84;118.99
66035;HTU21D;52805;51.074;5.842;2023-06-05T01:16:51;17.78;118.99
66035;HTU21D;52805;51.074;5.842;2023-06-05T01:19:23;17.73;118.99
66035;HTU21D;52805;51.074;5.842;2023-06-05T01:21:51;17.65;118.99
66035;HTU21D;52805;51.074;5.842;2023-06-05T01:24:17;17.66;118.99
66035;HTU21D;52805;51.074;5.842;2023-06-05T01:27:12;17.62;118.99
66035;HTU21D;52805;51.074;5.842;2023-06-05T01:32:42;17.54;118.99
66035;HTU21D;52805;51.074;5.842;2023-06-05T01:35:11;17.56;118.99
66035;HTU21D;52805;51.074;5.842;2023-06-05T01:37:45;17.56;118.99
66035;HTU21D;52805;51.074;5.842;2023-06-05T01:40:22;17.54;118.99
66035;HTU21D;52805;51.074;5.842;2023-06-05T01:42:50;17.52;118.99
66035;HTU21D;52805;51.074;5.842;2023-06-05T01:45:18;17.45;118.99
66035;HTU21D;52805;51.074;5.842;2023-06-05T01:47:44;17.40;118.99
66035;HTU21D;52805;51.074;5.842;2023-06-05T01:50:14;17.39;118.99
66035;HTU21D;52805;51.074;5.842;2023-06-05T01:52:40;17.33;118.99
66035;HTU21D;52805;51.074;5.842;2023-06-05T01:55:07;17.29;118.99
66035;HTU21D;52805;51.074;5.842;2023-06-05T01:57:41;17.26;118.99
66035;HTU21D;52805;51.074;5.842;2023-06-05T02:00:08;17.22;118.99
66035;HTU21D;52805;51.074;5.842;2023-06-05T02:02:45;17.20;118.99
66035;HTU21D;52805;51.074;5.842;2023-06-05T02:05:14;17.13;118.99
66035;HTU21D;52805;51.074;5.842;2023-06-05T02:07:43;17.06;118.99
66035;HTU21D;52805;51.074;5.842;2023-06-05T02:10:12;17.01;118.99
66035;HTU21D;52805;51.074;5.842;2023-06-05T02:12:38;16.96;118.99
66035;HTU21D;52805;51.074;5.842;2023-06-05T02:15:07;16.91;118.99
66035;HTU21D;52805;51.074;5.842;2023-06-05T02:17:34;16.91;118.99
66035;HTU21D;52805;51.074;5.842;2023-06-05T02:20:00;16.92;118.99
66035;HTU21D;52805;51.074;5.842;2023-06-05T02:22:27;16.92;118.99
66035;HTU21D;52805;51.074;5.842;2023-06-05T02:24:52;16.85;118.99
66035;HTU21D;52805;51.074;5.842;2023-06-05T02:27:20;16.80;118.99
66035;HTU21D;52805;51.074;5.842;2023-06-05T02:29:46;16.74;118.99
66035;HTU21D;52805;51.074;5.842;2023-06-05T02:32:12;16.73;118.99
66035;HTU21D;52805;51.074;5.842;2023-06-05T02:34:38;16.70;118.99
66035;HTU21D;52805;51.074;5.842;2023-06-05T02:37:04;16.65;118.99
66035;HTU21D;52805;51.074;5.842;2023-06-05T02:39:31;16.62;118.99
66035;HTU21D;52805;51.074;5.842;2023-06-05T02:41:59;16.57;118.99
66035;HTU21D;52805;51.074;5.842;2023-06-05T02:44:24;16.46;118.99
66035;HTU21D;52805;51.074;5.842;2023-06-05T02:46:50;16.41;118.99
66035;HTU21D;52805;51.074;5.842;2023-06-05T02:49:16;16.42;118.99
66035;HTU21D;52805;51.074;5.842;2023-06-05T02:51:42;16.41;118.99
66035;HTU21D;52805;51.074;5.842;2023-06-05T02:54:08;16.41;118.99
66035;HTU21D;52805;51.074;5.842;2023-06-05T02:56:34;16.36;118.99
66035;HTU21D;52805;51.074;5.842;2023-06-05T02:59:01;16.35;118.99
66035;HTU21D;52805;51.074;5.842;2023-06-05T03:01:30;16.29;118.99
66035;HTU21D;52805;51.074;5.842;2023-06-05T03:04:03;16.26;118.99
66035;HTU21D;52805;51.074;5.842;2023-06-05T03:06:35;16.18;118.99
66035;HTU21D;52805;51.074;5.842;2023-06-05T03:09:04;16.12;118.99
66035;HTU21D;52805;51.074;5.842;2023-06-05T03:11:32;16.06;118.99
66035;HTU21D;52805;51.074;5.842;2023-06-05T03:13:57;16.04;118.99
66035;HTU21D;52805;51.074;5.842;2023-06-05T03:16:26;16.01;118.99
66035;HTU21D;52805;51.074;5.842;2023-06-05T03:18:59;15.93;118.99
66035;HTU21D;52805;51.074;5.842;2023-06-05T03:21:24;15.90;118.99
66035;HTU21D;52805;51.074;5.842;2023-06-05T03:23:50;15.90;118.99
66035;HTU21D;52805;51.074;5.842;2023-06-05T03:26:16;15.88;118.99
66035;HTU21D;52805;51.074;5.842;2023-06-05T03:28:42;15.87;118.99
66035;HTU21D;52805;51.074;5.842;2023-06-05T03:31:09;15.87;118.99
66035;HTU21D;52805;51.074;5.842;2023-06-05T03:33:39;15.86;118.99
66035;HTU21D;52805;51.074;5.842;2023-06-05T03:36:05;15.82;118.99
66035;HTU21D;52805;51.074;5.842;2023-06-05T03:38:33;15.78;118.99
66035;HTU21D;52805;51.074;5.842;2023-06-05T03:40:59;15.74;118.99
66035;HTU21D;52805;51.074;5.842;2023-06-05T03:43:25;15.72;118.99
66035;HTU21D;52805;51.074;5.842;2023-06-05T03:45:51;15.73;118.99
66035;HTU21D;52805;51.074;5.842;2023-06-05T03:48:18;15.72;118.99
66035;HTU21D;52805;51.074;5.842;2023-06-05T03:50:48;15.71;118.99
66035;HTU21D;52805;51.074;5.842;2023-06-05T03:53:17;15.72;118.99
66035;HTU21D;52805;51.074;5.842;2023-06-05T03:55:45;15.69;118.99
66035;HTU21D;52805;51.074;5.842;2023-06-05T03:58:21;15.67;118.99
66035;HTU21D;52805;51.074;5.842;2023-06-05T04:00:50;15.66;118.99
66035;HTU21D;52805;51.074;5.842;2023-06-05T04:03:16;15.63;118.99
66035;HTU21D;52805;51.074;5.842;2023-06-05T04:05:44;15.62;118.99
66035;HTU21D;52805;51.074;5.842;2023-06-05T04:08:10;15.63;118.99
66035;HTU21D;52805;51.074;5.842;2023-06-05T04:10:37;15.66;118.99
66035;HTU21D;52805;51.074;5.842;2023-06-05T04:13:04;15.66;118.99
66035;HTU21D;52805;51.074;5.842;2023-06-05T04:15:31;15.65;118.99
66035;HTU21D;52805;51.074;5.842;2023-06-05T04:17:57;15.63;118.99
66035;HTU21D;52805;51.074;5.842;2023-06-05T04:20:23;15.65;118.99
66035;HTU21D;52805;51.074;5.842;2023-06-05T04:22:50;15.68;118.99
66035;HTU21D;52805;51.074;5.842;2023-06-05T04:25:15;15.67;118.99
66035;HTU21D;52805;51.074;5.842;2023-06-05T04:27:44;15.69;118.99
66035;HTU21D;52805;51.074;5.842;2023-06-05T04:30:12;15.72;118.99
66035;HTU21D;52805;51.074;5.842;2023-06-05T04:32:39;15.74;118.99
66035;HTU21D;52805;51.074;5.842;2023-06-05T04:35:09;15.75;118.99
66035;HTU21D;52805;51.074;5.842;2023-06-05T04:37:36;15.80;118.99
66035;HTU21D;52805;51.074;5.842;2023-06-05T04:40:04;15.84;118.99
66035;HTU21D;52805;51.074;5.842;2023-06-05T04:42:39;15.88;118.99
66035;HTU21D;52805;51.074;5.842;2023-06-05T04:45:07;15.90;118.99
66035;HTU21D;52805;51.074;5.842;2023-06-05T04:47:40;15.85;118.99
66035;HTU21D;52805;51.074;5.842;2023-06-05T04:50:06;15.80;118.99
66035;HTU21D;52805;51.074;5.842;2023-06-05T04:52:35;15.78;118.99
66035;HTU21D;52805;51.074;5.842;2023-06-05T04:55:02;15.82;118.99
66035;HTU21D;52805;51.074;5.842;2023-06-05T04:57:29;15.84;118.99
66035;HTU21D;52805;51.074;5.842;2023-06-05T04:59:56;15.88;118.99
66035;HTU21D;52805;51.074;5.842;2023-06-05T05:02:26;15.89;118.99
66035;HTU21D;52805;51.074;5.842;2023-06-05T05:04:52;15.93;118.99
66035;HTU21D;52805;51.074;5.842;2023-06-05T05:07:18;15.99;118.99
66035;HTU21D;52805;51.074;5.842;2023-06-05T05:09:45;16.03;118.99
66035;HTU21D;52805;51.074;5.842;2023-06-05T05:12:12;16.05;118.99
66035;HTU21D;52805;51.074;5.842;2023-06-05T05:14:38;16.06;118.99
66035;HTU21D;52805;51.074;5.842;2023-06-05T05:17:05;16.12;118.99
66035;HTU21D;52805;51.074;5.842;2023-06-05T05:19:31;16.15;118.99
66035;HTU21D;52805;51.074;5.842;2023-06-05T05:21:59;16.16;118.99
66035;HTU21D;52805;51.074;5.842;2023-06-05T05:24:25;16.20;118.99
66035;HTU21D;52805;51.074;5.842;2023-06-05T05:26:52;16.18;118.99
66035;HTU21D;52805;51.074;5.842;2023-06-05T05:29:18;16.19;118.99
66035;HTU21D;52805;51.074;5.842;2023-06-05T05:31:45;16.25;118.99
66035;HTU21D;52805;51.074;5.842;2023-06-05T05:34:11;16.29;118.99
66035;HTU21D;52805;51.074;5.842;2023-06-05T05:36:37;16.30;118.99
66035;HTU21D;52805;51.074;5.842;2023-06-05T05:39:03;16.32;118.99
66035;HTU21D;52805;51.074;5.842;2023-06-05T05:41:30;16.34;118.99
66035;HTU21D;52805;51.074;5.842;2023-06-05T05:43:56;16.37;118.99
66035;HTU21D;52805;51.074;5.842;2023-06-05T05:46:22;16.41;118.99
66035;HTU21D;52805;51.074;5.842;2023-06-05T05:48:47;16.41;118.99
66035;HTU21D;52805;51.074;5.842;2023-06-05T05:51:13;16.41;118.99
66035;HTU21D;52805;51.074;5.842;2023-06-05T05:53:38;16.34;118.99
66035;HTU21D;52805;51.074;5.842;2023-06-05T05:56:04;16.33;118.99
66035;HTU21D;52805;51.074;5.842;2023-06-05T05:58:30;16.35;118.99
66035;HTU21D;52805;51.074;5.842;2023-06-05T06:00:57;16.41;118.99
66035;HTU21D;52805;51.074;5.842;2023-06-05T06:03:25;16.44;118.99
66035;HTU21D;52805;51.074;5.842;2023-06-05T06:05:54;16.48;118.99
66035;HTU21D;52805;51.074;5.842;2023-06-05T06:08:19;16.52;118.99
66035;HTU21D;52805;51.074;5.842;2023-06-05T06:10:46;16.58;118.99
66035;HTU21D;52805;51.074;5.842;2023-06-05T06:13:12;16.60;118.99
66035;HTU21D;52805;51.074;5.842;2023-06-05T06:15:38;16.64;118.99
66035;HTU21D;52805;51.074;5.842;2023-06-05T06:18:05;16.71;118.99
66035;HTU21D;52805;51.074;5.842;2023-06-05T06:20:32;16.70;118.99
66035;HTU21D;52805;51.074;5.842;2023-06-05T06:22:59;16.77;118.99
66035;HTU21D;52805;51.074;5.842;2023-06-05T06:25:24;16.76;118.99
66035;HTU21D;52805;51.074;5.842;2023-06-05T06:27:55;16.81;118.99
66035;HTU21D;52805;51.074;5.842;2023-06-05T06:30:21;16.84;118.99
66035;HTU21D;52805;51.074;5.842;2023-06-05T06:32:47;16.87;118.99
66035;HTU21D;52805;51.074;5.842;2023-06-05T06:35:13;16.88;118.99
66035;HTU21D;52805;51.074;5.842;2023-06-05T06:37:42;16.92;118.99
66035;HTU21D;52805;51.074;5.842;2023-06-05T06:40:08;16.92;118.99
66035;HTU21D;52805;51.074;5.842;2023-06-05T06:42:35;16.95;118.99
66035;HTU21D;52805;51.074;5.842;2023-06-05T06:45:14;16.99;118.99
66035;HTU21D;52805;51.074;5.842;2023-06-05T06:47:40;17.08;118.99
66035;HTU21D;52805;51.074;5.842;2023-06-05T06:50:07;17.11;118.99
66035;HTU21D;52805;51.074;5.842;2023-06-05T06:52:33;17.19;118.99
66035;HTU21D;52805;51.074;5.842;2023-06-05T06:54:58;17.25;118.99
66035;HTU21D;52805;51.074;5.842;2023-06-05T06:57:24;17.30;118.99
66035;HTU21D;52805;51.074;5.842;2023-06-05T06:59:50;17.35;118.99
66035;HTU21D;52805;51.074;5.842;2023-06-05T07:02:18;17.38;118.99
66035;HTU21D;52805;51.074;5.842;2023-06-05T07:04:44;17.40;118.99
66035;HTU21D;52805;51.074;5.842;2023-06-05T07:07:12;17.46;118.99
66035;HTU21D;52805;51.074;5.842;2023-06-05T07:09:38;17.48;118.99
66035;HTU21D;52805;51.074;5.842;2023-06-05T07:12:05;17.50;118.99
66035;HTU21D;52805;51.074;5.842;2023-06-05T07:14:32;17.53;118.99
66035;HTU21D;52805;51.074;5.842;2023-06-05T07:16:59;17.50;118.99
66035;HTU21D;52805;51.074;5.842;2023-06-05T07:19:30;17.53;118.99
66035;HTU21D;52805;51.074;5.842;2023-06-05T07:21:56;17.59;118.99
66035;HTU21D;52805;51.074;5.842;2023-06-05T07:24:26;17.66;118.99
66035;HTU21D;52805;51.074;5.842;2023-06-05T07:26:56;17.76;118.99
66035;HTU21D;52805;51.074;5.842;2023-06-05T07:29:23;17.79;118.99
66035;HTU21D;52805;51.074;5.842;2023-06-05T07:31:51;17.84;118.99
66035;HTU21D;52805;51.074;5.842;2023-06-05T07:34:21;17.88;118.99
66035;HTU21D;52805;51.074;5.842;2023-06-05T07:36:48;17.95;118.99
66035;HTU21D;52805;51.074;5.842;2023-06-05T07:39:15;17.97;118.99
66035;HTU21D;52805;51.074;5.842;2023-06-05T07:41:41;18.05;118.99
66035;HTU21D;52805;51.074;5.842;2023-06-05T07:44:09;18.12;118.99
66035;HTU21D;52805;51.074;5.842;2023-06-05T07:46:35;18.15;118.99
66035;HTU21D;52805;51.074;5.842;2023-06-05T07:49:00;18.20;118.99
66035;HTU21D;52805;51.074;5.842;2023-06-05T07:51:26;18.22;118.99
66035;HTU21D;52805;51.074;5.842;2023-06-05T07:53:52;18.30;118.99
66035;HTU21D;52805;51.074;5.842;2023-06-05T07:56:18;18.34;118.99
66035;HTU21D;52805;51.074;5.842;2023-06-05T07:58:43;18.41;118.99
66035;HTU21D;52805;51.074;5.842;2023-06-05T08:01:10;18.49;118.99
66035;HTU21D;52805;51.074;5.842;2023-06-05T08:03:37;18.57;118.99
66035;HTU21D;52805;51.074;5.842;2023-06-05T08:06:03;18.71;118.99
66035;HTU21D;52805;51.074;5.842;2023-06-05T08:08:29;18.86;118.99
66035;HTU21D;52805;51.074;5.842;2023-06-05T08:10:55;18.91;118.99
66035;HTU21D;52805;51.074;5.842;2023-06-05T08:13:21;18.97;118.99
66035;HTU21D;52805;51.074;5.842;2023-06-05T08:15:47;19.03;118.99
66035;HTU21D;52805;51.074;5.842;2023-06-05T08:18:14;19.13;118.99
66035;HTU21D;52805;51.074;5.842;2023-06-05T08:20:41;19.28;118.99
66035;HTU21D;52805;51.074;5.842;2023-06-05T08:23:07;19.35;118.99
66035;HTU21D;52805;51.074;5.842;2023-06-05T08:25:33;19.36;118.99
66035;HTU21D;52805;51.074;5.842;2023-06-05T08:27:58;19.42;118.99
66035;HTU21D;52805;51.074;5.842;2023-06-05T08:30:24;19.53;118.99
66035;HTU21D;52805;51.074;5.842;2023-06-05T08:32:50;19.60;118.99
66035;HTU21D;52805;51.074;5.842;2023-06-05T08:35:15;19.67;118.99
66035;HTU21D;52805;51.074;5.842;2023-06-05T08:37:41;19.72;118.99
66035;HTU21D;52805;51.074;5.842;2023-06-05T08:40:07;19.75;118.99
66035;HTU21D;52805;51.074;5.842;2023-06-05T08:42:38;19.82;118.99
66035;HTU21D;52805;51.074;5.842;2023-06-05T08:45:08;19.85;118.99
66035;HTU21D;52805;51.074;5.842;2023-06-05T08:47:38;19.99;118.99
66035;HTU21D;52805;51.074;5.842;2023-06-05T08:50:06;20.02;118.99
66035;HTU21D;52805;51.074;5.842;2023-06-05T08:52:38;20.10;118.99
66035;HTU21D;52805;51.074;5.842;2023-06-05T08:55:05;20.15;118.99
66035;HTU21D;52805;51.074;5.842;2023-06-05T08:57:32;20.21;118.99
66035;HTU21D;52805;51.074;5.842;2023-06-05T09:00:01;20.30;118.99
66035;HTU21D;52805;51.074;5.842;2023-06-05T09:02:32;20.39;118.99
66035;HTU21D;52805;51.074;5.842;2023-06-05T09:04:58;20.40;118.99
66035;HTU21D;52805;51.074;5.842;2023-06-05T09:07:29;20.42;118.99
66035;HTU21D;52805;51.074;5.842;2023-06-05T09:09:54;20.45;118.99
66035;HTU21D;52805;51.074;5.842;2023-06-05T09:12:20;20.49;118.99
66035;HTU21D;52805;51.074;5.842;2023-06-05T09:14:46;20.55;118.99
66035;HTU21D;52805;51.074;5.842;2023-06-05T09:17:13;20.53;118.99
66035;HTU21D;52805;51.074;5.842;2023-06-05T09:19:41;20.57;118.99
66035;HTU21D;52805;51.074;5.842;2023-06-05T09:22:09;20.68;118.99
66035;HTU21D;52805;51.074;5.842;2023-06-05T09:24:36;20.74;118.99
66035;HTU21D;52805;51.074;5.842;2023-06-05T09:27:03;20.85;118.99
66035;HTU21D;52805;51.074;5.842;2023-06-05T09:29:36;20.94;118.99
66035;HTU21D;52805;51.074;5.842;2023-06-05T09:32:18;21.02;118.99
66035;HTU21D;52805;51.074;5.842;2023-06-05T09:34:56;21.08;118.99
66035;HTU21D;52805;51.074;5.842;2023-06-05T09:37:36;21.16;118.99
66035;HTU21D;52805;51.074;5.842;2023-06-05T09:40:03;21.23;118.99
66035;HTU21D;52805;51.074;5.842;2023-06-05T09:42:34;21.33;118.99
66035;HTU21D;52805;51.074;5.842;2023-06-05T09:45:02;21.42;118.99
66035;HTU21D;52805;51.074;5.842;2023-06-05T09:47:30;21.51;118.99
66035;HTU21D;52805;51.074;5.842;2023-06-05T09:49:56;21.54;118.99
66035;HTU21D;52805;51.074;5.842;2023-06-05T09:52:22;21.61;118.99
66035;HTU21D;52805;51.074;5.842;2023-06-05T09:54:48;21.74;118.99
66035;HTU21D;52805;51.074;5.842;2023-06-05T09:57:15;21.85;118.99
66035;HTU21D;52805;51.074;5.842;2023-06-05T09:59:50;21.97;118.99
66035;HTU21D;52805;51.074;5.842;2023-06-05T10:02:20;21.95;118.99
66035;HTU21D;52805;51.074;5.842;2023-06-05T10:04:48;22.01;118.99
66035;HTU21D;52805;51.074;5.842;2023-06-05T10:07:15;22.12;118.99
66035;HTU21D;52805;51.074;5.842;2023-06-05T10:09:43;22.22;118.99
66035;HTU21D;52805;51.074;5.842;2023-06-05T10:12:09;22.34;118.99
66035;HTU21D;52805;51.074;5.842;2023-06-05T10:14:36;22.41;118.99
66035;HTU21D;52805;51.074;5.842;2023-06-05T10:17:02;22.44;118.99
66035;HTU21D;52805;51.074;5.842;2023-06-05T10:19:29;22.44;118.99
66035;HTU21D;52805;51.074;5.842;2023-06-05T10:21:55;22.53;118.99
66035;HTU21D;52805;51.074;5.842;2023-06-05T10:24:30;22.65;118.99
66035;HTU21D;52805;51.074;5.842;2023-06-05T10:35:24;23.06;118.99
66035;HTU21D;52805;51.074;5.842;2023-06-05T10:40:29;23.36;118.99
66035;HTU21D;52805;51.074;5.842;2023-06-05T10:46:02;23.37;114.89
66035;HTU21D;52805;51.074;5.842;2023-06-05T10:51:45;23.50;118.40
66035;HTU21D;52805;51.074;5.842;2023-06-05T10:54:14;23.55;114.78
66035;HTU21D;52805;51.074;5.842;2023-06-05T10:57:03;23.67;116.73
66035;HTU21D;52805;51.074;5.842;2023-06-05T10:59:33;23.82;112.94
66035;HTU21D;52805;51.074;5.842;2023-06-05T11:07:22;24.14;100.61
66035;HTU21D;52805;51.074;5.842;2023-06-05T11:10:13;24.20;100.52
66035;HTU21D;52805;51.074;5.842;2023-06-05T11:15:16;24.34;101.03
66035;HTU21D;52805;51.074;5.842;2023-06-05T11:17:43;24.45;98.32
66035;HTU21D;52805;51.074;5.842;2023-06-05T11:28:07;24.76;86.03
66035;HTU21D;52805;51.074;5.842;2023-06-05T11:30:42;24.78;82.71
66035;HTU21D;52805;51.074;5.842;2023-06-05T11:33:10;24.84;79.88
66035;HTU21D;52805;51.074;5.842;2023-06-05T11:35:39;24.90;80.85
66035;HTU21D;52805;51.074;5.842;2023-06-05T11:38:08;25.07;79.78
66035;HTU21D;52805;51.074;5.842;2023-06-05T11:40:35;25.25;76.00
66035;HTU21D;52805;51.074;5.842;2023-06-05T11:43:08;25.43;76.79
66035;HTU21D;52805;51.074;5.842;2023-06-05T11:45:38;25.60;71.80
66035;HTU21D;52805;51.074;5.842;2023-06-05T11:48:10;25.69;70.14
66035;HTU21D;52805;51.074;5.842;2023-06-05T11:50:37;25.82;59.83
66035;HTU21D;52805;51.074;5.842;2023-06-05T11:53:07;25.82;61.61
66035;HTU21D;52805;51.074;5.842;2023-06-05T11:55:33;25.76;61.07
66035;HTU21D;52805;51.074;5.842;2023-06-05T11:58:29;25.79;60.70
66035;HTU21D;52805;51.074;5.842;2023-06-05T12:01:17;25.87;58.63
66035;HTU21D;52805;51.074;5.842;2023-06-05T12:04:05;25.94;55.53
66035;HTU21D;52805;51.074;5.842;2023-06-05T12:06:32;26.07;51.50
66035;HTU21D;52805;51.074;5.842;2023-06-05T12:09:11;26.21;49.54
66035;HTU21D;52805;51.074;5.842;2023-06-05T12:11:39;26.26;47.71
66035;HTU21D;52805;51.074;5.842;2023-06-05T12:14:05;26.34;45.78
66035;HTU21D;52805;51.074;5.842;2023-06-05T12:18:58;26.56;46.96
66035;HTU21D;52805;51.074;5.842;2023-06-05T12:21:25;26.70;43.03
66035;HTU21D;52805;51.074;5.842;2023-06-05T12:24:01;26.66;36.50
66035;HTU21D;52805;51.074;5.842;2023-06-05T12:26:27;26.61;42.59
66035;HTU21D;52805;51.074;5.842;2023-06-05T12:29:05;26.61;43.05
66035;HTU21D;52805;51.074;5.842;2023-06-05T12:31:37;26.58;44.05
66035;HTU21D;52805;51.074;5.842;2023-06-05T12:34:15;26.60;39.45
66035;HTU21D;52805;51.074;5.842;2023-06-05T12:36:44;26.57;41.78
66035;HTU21D;52805;51.074;5.842;2023-06-05T12:39:11;26.65;42.77
66035;HTU21D;52805;51.074;5.842;2023-06-05T12:41:39;26.82;42.52
66035;HTU21D;52805;51.074;5.842;2023-06-05T12:44:06;26.98;43.47
66035;HTU21D;52805;51.074;5.842;2023-06-05T12:46:34;27.06;40.98
66035;HTU21D;52805;51.074;5.842;2023-06-05T12:49:01;27.14;42.18
66035;HTU21D;52805;51.074;5.842;2023-06-05T12:51:27;27.13;38.38
66035;HTU21D;52805;51.074;5.842;2023-06-05T12:53:54;27.04;39.17
66035;HTU21D;52805;51.074;5.842;2023-06-05T12:56:20;27.01;40.01
66035;HTU21D;52805;51.074;5.842;2023-06-05T12:58:54;27.13;37.90
66035;HTU21D;52805;51.074;5.842;2023-06-05T13:01:21;27.14;38.64
66035;HTU21D;52805;51.074;5.842;2023-06-05T13:03:47;27.14;37.20
66035;HTU21D;52805;51.074;5.842;2023-06-05T13:06:13;27.08;35.37
66035;HTU21D;52805;51.074;5.842;2023-06-05T13:08:39;27.12;38.57
66035;HTU21D;52805;51.074;5.842;2023-06-05T13:11:05;27.13;38.78
66035;HTU21D;52805;51.074;5.842;2023-06-05T13:13:30;27.26;38.40
66035;HTU21D;52805;51.074;5.842;2023-06-05T13:15:59;27.29;38.62
66035;HTU21D;52805;51.074;5.842;2023-06-05T13:18:27;27.41;38.20
66035;HTU21D;52805;51.074;5.842;2023-06-05T13:20:52;27.51;37.91
66035;HTU21D;52805;51.074;5.842;2023-06-05T13:23:18;27.55;36.70
66035;HTU21D;52805;51.074;5.842;2023-06-05T13:25:44;27.59;36.99
66035;HTU21D;52805;51.074;5.842;2023-06-05T13:28:10;27.66;36.93
66035;HTU21D;52805;51.074;5.842;2023-06-05T13:30:36;27.78;36.81
66035;HTU21D;52805;51.074;5.842;2023-06-05T13:33:02;27.84;37.22
66035;HTU21D;52805;51.074;5.842;2023-06-05T13:35:28;27.97;37.06
66035;HTU21D;52805;51.074;5.842;2023-06-05T13:37:53;28.05;36.24
66035;HTU21D;52805;51.074;5.842;2023-06-05T13:40:19;28.17;35.44
66035;HTU21D;52805;51.074;5.842;2023-06-05T13:42:45;28.23;34.93
66035;HTU21D;52805;51.074;5.842;2023-06-05T13:45:11;28.20;33.89
66035;HTU21D;52805;51.074;5.842;2023-06-05T13:47:37;28.25;34.47
66035;HTU21D;52805;51.074;5.842;2023-06-05T13:50:04;28.40;34.31
66035;HTU21D;52805;51.074;5.842;2023-06-05T13:52:30;28.45;33.11
66035;HTU21D;52805;51.074;5.842;2023-06-05T13:54:56;28.43;32.32
66035;HTU21D;52805;51.074;5.842;2023-06-05T13:57:22;28.46;31.92
66035;HTU21D;52805;51.074;5.842;2023-06-05T13:59:48;28.57;31.77
66035;HTU21D;52805;51.074;5.842;2023-06-05T14:02:13;28.65;30.15
66035;HTU21D;52805;51.074;5.842;2023-06-05T14:04:39;28.61;30.94
66035;HTU21D;52805;51.074;5.842;2023-06-05T14:07:05;28.49;30.39
66035;HTU21D;52805;51.074;5.842;2023-06-05T14:09:30;28.45;30.87
66035;HTU21D;52805;51.074;5.842;2023-06-05T14:11:57;28.48;30.15
66035;HTU21D;52805;51.074;5.842;2023-06-05T14:14:24;28.49;29.62
66035;HTU21D;52805;51.074;5.842;2023-06-05T14:16:50;28.50;29.10
66035;HTU21D;52805;51.074;5.842;2023-06-05T14:19:17;28.45;29.61
66035;HTU21D;52805;51.074;5.842;2023-06-05T14:21:43;28.59;30.58
66035;HTU21D;52805;51.074;5.842;2023-06-05T14:24:09;28.70;30.65
66035;HTU21D;52805;51.074;5.842;2023-06-05T14:26:35;28.86;30.25
66035;HTU21D;52805;51.074;5.842;2023-06-05T14:29:02;29.02;29.11
66035;HTU21D;52805;51.074;5.842;2023-06-05T14:31:28;29.06;28.74
66035;HTU21D;52805;51.074;5.842;2023-06-05T14:33:54;29.04;28.05
66035;HTU21D;52805;51.074;5.842;2023-06-05T14:36:20;29.01;27.14
66035;HTU21D;52805;51.074;5.842;2023-06-05T14:38:45;28.90;27.29
66035;HTU21D;52805;51.074;5.842;2023-06-05T14:41:11;29.00;28.62
66035;HTU21D;52805;51.074;5.842;2023-06-05T14:43:37;29.05;27.86
66035;HTU21D;52805;51.074;5.842;2023-06-05T14:46:03;29.14;28.18
66035;HTU21D;52805;51.074;5.842;2023-06-05T14:48:30;29.06;28.16
66035;HTU21D;52805;51.074;5.842;2023-06-05T14:50:55;28.95;27.84
66035;HTU21D;52805;51.074;5.842;2023-06-05T14:53:22;28.87;28.97
66035;HTU21D;52805;51.074;5.842;2023-06-05T14:55:47;28.87;27.47
66035;HTU21D;52805;51.074;5.842;2023-06-05T14:58:13;28.75;27.35
66035;HTU21D;52805;51.074;5.842;2023-06-05T15:00:39;28.72;29.41
66035;HTU21D;52805;51.074;5.842;2023-06-05T15:03:05;28.84;29.19
66035;HTU21D;52805;51.074;5.842;2023-06-05T15:05:32;28.95;29.42
66035;HTU21D;52805;51.074;5.842;2023-06-05T15:07:58;29.08;29.55
66035;HTU21D;52805;51.074;5.842;2023-06-05T15:10:24;29.27;30.16
66035;HTU21D;52805;51.074;5.842;2023-06-05T15:12:50;29.45;30.25
66035;HTU21D;52805;51.074;5.842;2023-06-05T15:15:22;29.61;27.23
66035;HTU21D;52805;51.074;5.842;2023-06-05T15:17:48;29.61;29.44
66035;HTU21D;52805;51.074;5.842;2023-06-05T15:20:14;29.53;27.79
66035;HTU21D;52805;51.074;5.842;2023-06-05T15:22:40;29.50;29.72
66035;HTU21D;52805;51.074;5.842;2023-06-05T15:25:06;29.57;30.24
66035;HTU21D;52805;51.074;5.842;2023-06-05T15:27:32;29.62;30.43
66035;HTU21D;52805;51.074;5.842;2023-06-05T15:29:59;29.63;29.48
66035;HTU21D;52805;51.074;5.842;2023-06-05T15:32:25;29.64;29.69
66035;HTU21D;52805;51.074;5.842;2023-06-05T15:34:51;29.66;30.32
66035;HTU21D;52805;51.074;5.842;2023-06-05T15:37:17;29.71;30.10
66035;HTU21D;52805;51.074;5.842;2023-06-05T15:39:42;29.61;30.22
66035;HTU21D;52805;51.074;5.842;2023-06-05T15:42:08;29.57;30.49
66035;HTU21D;52805;51.074;5.842;2023-06-05T15:44:38;29.62;30.46
66035;HTU21D;52805;51.074;5.842;2023-06-05T15:47:07;29.62;30.44
66035;HTU21D;52805;51.074;5.842;2023-06-05T15:49:33;29.54;26.94
66035;HTU21D;52805;51.074;5.842;2023-06-05T15:51:58;29.47;30.16